createdAt,value
2018-04-23T00:02:11.021Z,13.50
2018-04-23T00:04:37.461Z,13.10
2018-04-23T00:07:05.047Z,13.40
2018-04-23T00:09:32.229Z,13.40
2018-04-23T00:11:58.693Z,13.40
2018-04-23T00:14:25.286Z,13.10
2018-04-23T00:16:51.663Z,13.40
2018-04-23T00:19:18.088Z,13.40
2018-04-23T00:21:44.982Z,13.50
2018-04-23T00:24:11.636Z,13.40
2018-04-23T00:26:38.867Z,13.50
2018-04-23T00:29:05.344Z,13.50
2018-04-23T00:31:32.259Z,13.50
2018-04-23T00:33:59.506Z,13.40
2018-04-23T00:36:25.933Z,13.10
2018-04-23T00:38:52.394Z,12.90
2018-04-23T00:41:18.728Z,12.90
2018-04-23T00:43:45.225Z,13.10
2018-04-23T00:46:17.603Z,13.00
2018-04-23T00:48:45.948Z,12.80
2018-04-23T00:51:13.107Z,12.70
2018-04-23T00:53:39.475Z,12.70
2018-04-23T00:56:05.861Z,12.20
2018-04-23T00:58:32.246Z,12.30
2018-04-23T01:00:58.714Z,12.40
2018-04-23T01:03:25.619Z,12.40
2018-04-23T01:05:52.807Z,12.20
2018-04-23T01:08:19.330Z,12.20
2018-04-23T01:10:46.139Z,12.20
2018-04-23T01:13:14.518Z,12.40
2018-04-23T01:15:40.976Z,12.30
2018-04-23T01:18:07.564Z,12.40
2018-04-23T01:20:34.056Z,12.40
2018-04-23T01:23:00.454Z,12.30
2018-04-23T01:25:27.437Z,12.30
2018-04-23T01:27:54.631Z,12.20
2018-04-23T01:30:21.651Z,12.10
2018-04-23T01:32:48.048Z,12.30
2018-04-23T01:35:15.303Z,12.60
2018-04-23T01:37:41.700Z,12.60
2018-04-23T01:40:08.231Z,12.70
2018-04-23T01:42:36.133Z,12.70
2018-04-23T01:45:02.811Z,12.80
2018-04-23T01:47:31.146Z,12.90
2018-04-23T01:49:58.935Z,12.90
2018-04-23T01:52:26.781Z,12.90
2018-04-23T01:54:54.602Z,13.00
2018-04-23T01:57:21.008Z,13.10
2018-04-23T01:59:47.823Z,13.20
2018-04-23T02:02:14.957Z,13.00
2018-04-23T02:04:41.333Z,13.00
2018-04-23T02:07:07.745Z,12.90
2018-04-23T02:09:35.710Z,13.10
2018-04-23T02:12:02.130Z,13.20
2018-04-23T02:14:28.527Z,13.40
2018-04-23T02:16:55.032Z,13.60
2018-04-23T02:19:22.143Z,13.00
2018-04-23T02:21:49.266Z,13.00
2018-04-23T02:24:15.629Z,13.00
2018-04-23T02:26:42.050Z,13.00
2018-04-23T02:29:08.498Z,13.00
2018-04-23T02:31:35.047Z,12.90
2018-04-23T02:34:01.631Z,13.00
2018-04-23T02:36:27.997Z,12.90
2018-04-23T02:38:54.437Z,12.90
2018-04-23T02:41:20.790Z,12.90
2018-04-23T02:43:47.909Z,13.10
2018-04-23T02:46:14.445Z,13.10
2018-04-23T02:48:40.916Z,13.30
2018-04-23T02:51:07.433Z,13.30
2018-04-23T02:53:34.596Z,13.40
2018-04-23T02:56:01.057Z,13.50
2018-04-23T02:58:28.151Z,13.60
2018-04-23T03:00:55.317Z,13.60
2018-04-23T03:03:22.193Z,13.60
2018-04-23T03:05:48.610Z,13.80
2018-04-23T03:08:15.810Z,13.90
2018-04-23T03:10:42.269Z,13.90
2018-04-23T03:13:08.685Z,13.90
2018-04-23T03:15:35.206Z,13.90
2018-04-23T03:18:01.643Z,13.90
2018-04-23T03:20:28.092Z,13.60
2018-04-23T03:22:54.427Z,13.90
2018-04-23T03:25:21.962Z,13.90
2018-04-23T03:27:48.834Z,14.00
2018-04-23T03:30:15.268Z,13.90
2018-04-23T03:32:41.690Z,13.90
2018-04-23T03:35:08.076Z,13.90
2018-04-23T03:37:34.471Z,13.90
2018-04-23T03:40:01.712Z,13.80
2018-04-23T03:42:28.122Z,13.90
2018-04-23T03:44:54.513Z,14.10
2018-04-23T03:47:20.984Z,13.70
2018-04-23T03:49:47.423Z,13.90
2018-04-23T03:52:13.852Z,13.80
2018-04-23T03:54:40.387Z,13.80
2018-04-23T03:57:07.577Z,13.80
2018-04-23T03:59:34.030Z,13.80
2018-04-23T04:02:01.318Z,13.80
2018-04-23T04:04:27.736Z,13.80
2018-04-23T04:06:54.180Z,13.80
2018-04-23T04:09:20.650Z,13.90
2018-04-23T04:14:27.341Z,13.90
2018-04-23T04:16:54.857Z,13.90
2018-04-23T04:19:21.765Z,13.20
2018-04-23T04:21:48.349Z,13.90
2018-04-23T04:24:15.558Z,13.90
2018-04-23T04:26:42.067Z,14.00
2018-04-23T04:29:08.508Z,14.20
2018-04-23T04:31:35.933Z,14.10
2018-04-23T04:34:03.756Z,14.10
2018-04-23T04:36:30.491Z,14.10
2018-04-23T04:38:57.660Z,14.20
2018-04-23T04:41:24.773Z,14.20
2018-04-23T04:43:52.267Z,14.20
2018-04-23T04:46:18.665Z,14.20
2018-04-23T04:48:45.501Z,13.80
2018-04-23T04:51:12.324Z,14.70
2018-04-23T04:53:39.282Z,14.20
2018-04-23T04:56:07.625Z,14.30
2018-04-23T04:58:34.107Z,14.50
2018-04-23T05:01:00.920Z,14.40
2018-04-23T05:03:27.661Z,14.50
2018-04-23T05:05:54.403Z,14.40
2018-04-23T05:08:21.615Z,14.50
2018-04-23T05:10:50.104Z,14.60
2018-04-23T05:13:23.874Z,14.60
2018-04-23T05:15:53.204Z,14.60
2018-04-23T05:18:20.021Z,14.60
2018-04-23T05:20:48.107Z,14.60
2018-04-23T05:23:14.865Z,14.60
2018-04-23T05:25:42.001Z,14.70
2018-04-23T05:28:08.363Z,14.80
2018-04-23T05:30:41.729Z,14.90
2018-04-23T05:33:08.947Z,15.00
2018-04-23T05:35:35.319Z,15.10
2018-04-23T05:38:02.228Z,15.20
2018-04-23T05:40:28.738Z,15.60
2018-04-23T05:42:55.576Z,15.30
2018-04-23T05:45:22.001Z,15.60
2018-04-23T05:47:48.380Z,15.30
2018-04-23T05:50:15.090Z,15.30
2018-04-23T05:52:41.963Z,15.30
2018-04-23T05:55:10.111Z,15.30
2018-04-23T05:57:36.733Z,15.30
2018-04-23T06:00:03.364Z,15.30
2018-04-23T06:02:30.472Z,15.40
2018-04-23T06:04:57.338Z,15.20
2018-04-23T06:07:23.790Z,15.40
2018-04-23T06:09:51.293Z,15.50
2018-04-23T06:12:19.248Z,15.40
2018-04-23T06:14:46.426Z,15.60
2018-04-23T06:17:13.241Z,15.70
2018-04-23T06:19:40.687Z,15.70
2018-04-23T06:22:08.450Z,15.80
2018-04-23T06:24:35.188Z,15.70
2018-04-23T06:27:01.687Z,15.90
2018-04-23T06:31:56.947Z,16.20
2018-04-23T06:36:52.224Z,16.30
2018-04-23T06:41:48.708Z,16.20
2018-04-23T06:44:15.684Z,15.90
2018-04-23T06:54:08.022Z,16.50
2018-04-23T06:56:35.000Z,16.80
2018-04-23T06:59:01.640Z,17.30
2018-04-23T07:01:28.854Z,17.10
2018-04-23T07:03:56.374Z,17.30
2018-04-23T07:06:22.892Z,17.20
2018-04-23T07:08:49.406Z,17.20
2018-04-23T07:11:22.235Z,17.40
2018-04-23T07:13:49.983Z,17.40
2018-04-23T07:16:16.882Z,17.50
2018-04-23T07:18:44.035Z,17.30
2018-04-23T07:21:10.811Z,17.20
2018-04-23T07:23:38.657Z,17.00
2018-04-23T07:28:33.627Z,17.00
2018-04-23T07:31:00.386Z,17.20
2018-04-23T07:33:27.205Z,17.50
2018-04-23T07:35:54.775Z,17.70
2018-04-23T07:38:22.764Z,17.60
2018-04-23T07:40:49.320Z,17.60
2018-04-23T07:43:16.443Z,17.80
2018-04-23T07:45:43.913Z,17.90
2018-04-23T07:48:11.317Z,17.50
2018-04-23T07:50:39.248Z,17.30
2018-04-23T07:53:05.620Z,17.20
2018-04-23T07:55:32.024Z,16.90
2018-04-23T07:57:58.561Z,17.20
2018-04-23T08:00:25.333Z,17.60
2018-04-23T08:02:52.109Z,17.80
2018-04-23T08:05:18.862Z,17.90
2018-04-23T08:15:11.118Z,17.70
2018-04-23T08:20:06.449Z,17.70
2018-04-23T08:22:35.249Z,17.90
2018-04-23T08:25:03.197Z,17.70
2018-04-23T08:27:29.595Z,18.00
2018-04-23T08:29:56.943Z,17.90
2018-04-23T08:32:24.200Z,18.50
2018-04-23T08:34:51.992Z,18.60
2018-04-23T08:37:18.347Z,19.10
2018-04-23T08:39:45.481Z,18.70
2018-04-23T08:42:13.549Z,18.40
2018-04-23T08:44:41.150Z,18.30
2018-04-23T08:47:09.110Z,18.00
2018-04-23T08:49:36.017Z,18.90
2018-04-23T08:52:02.873Z,18.80
2018-04-23T08:54:30.433Z,18.80
2018-04-23T08:56:56.962Z,18.60
2018-04-23T08:59:23.477Z,18.20
2018-04-23T09:01:51.167Z,18.30
2018-04-23T09:04:17.966Z,17.90
2018-04-23T09:06:44.960Z,17.70
2018-04-23T09:09:11.325Z,17.60
2018-04-23T09:11:38.196Z,17.70
2018-04-23T09:14:06.364Z,17.30
2018-04-23T09:16:33.298Z,17.50
2018-04-23T09:18:59.739Z,17.80
2018-04-23T09:21:26.666Z,18.10
2018-04-23T09:23:53.458Z,18.10
2018-04-23T09:26:20.036Z,17.60
2018-04-23T09:28:46.863Z,17.70
2018-04-23T09:31:13.817Z,17.40
2018-04-23T09:33:41.592Z,17.40
2018-04-23T09:36:08.243Z,18.30
2018-04-23T09:38:35.401Z,17.80
2018-04-23T09:41:01.922Z,18.30
2018-04-23T09:43:28.718Z,18.20
2018-04-23T09:45:55.220Z,17.70
2018-04-23T09:48:22.370Z,17.60
2018-04-23T09:50:49.140Z,17.10
2018-04-23T09:53:15.933Z,16.90
2018-04-23T09:55:44.105Z,16.50
2018-04-23T09:58:10.706Z,16.50
2018-04-23T10:00:39.422Z,16.40
2018-04-23T10:03:08.189Z,15.90
2018-04-23T10:05:34.714Z,15.80
2018-04-23T10:08:01.197Z,15.80
2018-04-23T10:10:29.326Z,15.90
2018-04-23T10:12:57.344Z,16.30
2018-04-23T10:15:24.900Z,16.70
2018-04-23T10:17:51.295Z,17.00
2018-04-23T10:22:47.211Z,17.00
2018-04-23T10:25:14.702Z,16.70
2018-04-23T10:27:47.680Z,17.00
2018-04-23T10:30:14.168Z,18.00
2018-04-23T10:32:40.835Z,18.50
2018-04-23T10:35:07.182Z,18.70
2018-04-23T10:37:35.262Z,18.50
2018-04-23T10:40:03.048Z,18.30
2018-04-23T10:42:29.788Z,17.40
2018-04-23T10:44:56.326Z,16.80
2018-04-23T10:47:23.134Z,16.50
2018-04-23T10:49:49.936Z,16.00
2018-04-23T10:52:16.774Z,15.80
2018-04-23T10:54:43.527Z,16.00
2018-04-23T10:57:11.121Z,16.00
2018-04-23T10:59:37.490Z,16.10
2018-04-23T11:02:03.977Z,16.30
2018-04-23T11:06:58.414Z,16.30
2018-04-23T11:09:25.183Z,16.30
2018-04-23T11:16:47.817Z,18.00
2018-04-23T11:19:14.545Z,17.90
2018-04-23T11:21:41.171Z,17.70
2018-04-23T11:24:09.936Z,18.00
2018-04-23T11:26:36.742Z,17.70
2018-04-23T11:29:04.668Z,18.40
2018-04-23T11:31:31.087Z,19.30
2018-04-23T11:33:58.990Z,19.30
2018-04-23T11:36:25.534Z,20.30
2018-04-23T11:38:52.309Z,21.20
2018-04-23T11:43:46.913Z,21.50
2018-04-23T11:46:13.397Z,22.20
2018-04-23T11:48:39.800Z,21.10
2018-04-23T11:51:06.567Z,20.40
2018-04-23T11:53:33.343Z,21.10
2018-04-23T11:56:00.058Z,20.50
2018-04-23T11:58:26.641Z,20.20
2018-04-23T12:00:53.227Z,20.70
2018-04-23T12:03:20.490Z,21.80
2018-04-23T12:05:47.158Z,22.10
2018-04-23T12:08:14.021Z,22.10
2018-04-23T12:10:40.764Z,21.20
2018-04-23T12:13:07.216Z,21.00
2018-04-23T12:15:34.222Z,20.10
2018-04-23T12:18:02.559Z,21.20
2018-04-23T12:20:30.054Z,21.50
2018-04-23T12:22:57.264Z,21.70
2018-04-23T12:32:51.379Z,20.20
2018-04-23T12:35:18.587Z,21.30
2018-04-23T12:37:45.238Z,21.60
2018-04-23T12:40:12.069Z,20.90
2018-04-23T12:42:40.851Z,19.80
2018-04-23T12:45:07.335Z,20.10
2018-04-23T12:47:33.851Z,21.30
2018-04-23T12:52:29.327Z,21.70
2018-04-23T12:59:52.848Z,21.20
2018-04-23T13:02:19.288Z,21.50
2018-04-23T13:07:14.348Z,20.00
2018-04-23T13:09:41.340Z,21.10
2018-04-23T13:12:08.094Z,21.30
2018-04-23T13:14:35.181Z,21.10
2018-04-23T13:19:35.536Z,18.20
2018-04-23T13:22:02.598Z,18.30
2018-04-23T13:24:29.034Z,18.80
2018-04-23T13:26:56.592Z,19.20
2018-04-23T13:29:23.843Z,18.90
2018-04-23T13:31:51.485Z,19.40
2018-04-23T13:39:16.103Z,21.30
2018-04-23T13:41:44.044Z,21.60
2018-04-23T13:44:12.127Z,20.80
2018-04-23T13:46:40.313Z,20.60
2018-04-23T13:49:06.996Z,20.00
2018-04-23T13:54:02.753Z,20.80
2018-04-23T14:01:28.069Z,19.40
2018-04-23T14:03:55.113Z,18.80
2018-04-23T14:06:21.962Z,18.70
2018-04-23T14:08:48.411Z,19.10
2018-04-23T14:11:15.749Z,19.00
2018-04-23T14:13:44.138Z,19.10
2018-04-23T14:16:10.912Z,19.80
2018-04-23T14:21:10.780Z,21.80
2018-04-23T14:23:38.561Z,22.50
2018-04-23T14:26:06.725Z,22.30
2018-04-23T14:28:34.108Z,20.60
2018-04-23T14:31:00.577Z,19.40
2018-04-23T14:33:27.282Z,18.90
2018-04-23T14:38:23.473Z,18.60
2018-04-23T14:40:50.585Z,17.90
2018-04-23T14:43:18.100Z,17.00
2018-04-23T14:45:46.766Z,17.50
2018-04-23T14:48:20.973Z,18.90
2018-04-23T14:50:47.715Z,20.30
2018-04-23T14:53:14.610Z,21.10
2018-04-23T14:55:41.913Z,21.00
2018-04-23T15:00:38.744Z,21.60
2018-04-23T15:03:05.858Z,21.90
2018-04-23T15:05:33.735Z,22.40
2018-04-23T15:08:01.400Z,22.40
2018-04-23T15:12:57.289Z,22.10
2018-04-23T15:15:24.670Z,21.90
2018-04-23T15:20:20.303Z,20.70
2018-04-23T15:22:50.065Z,20.10
2018-04-23T15:25:25.505Z,20.00
2018-04-23T15:27:53.197Z,19.70
2018-04-23T15:30:19.732Z,19.80
2018-04-23T15:35:17.264Z,21.00
2018-04-23T15:37:46.742Z,20.70
2018-04-23T15:42:43.914Z,19.60
2018-04-23T15:45:11.139Z,19.50
2018-04-23T15:47:38.079Z,19.30
2018-04-23T15:50:04.543Z,19.80
2018-04-23T15:54:59.582Z,19.30
2018-04-23T15:57:28.122Z,19.10
2018-04-23T15:59:54.624Z,19.00
2018-04-23T16:02:22.586Z,21.60
2018-04-23T16:04:49.245Z,19.60
2018-04-23T16:09:45.095Z,18.70
2018-04-23T16:12:13.038Z,18.80
2018-04-23T16:14:41.184Z,19.20
2018-04-23T16:17:09.212Z,19.90
2018-04-23T16:19:37.548Z,19.70
2018-04-23T16:24:37.695Z,20.00
2018-04-23T16:27:05.255Z,19.30
2018-04-23T16:34:50.311Z,17.80
2018-04-23T16:37:16.889Z,17.00
2018-04-23T16:39:44.266Z,16.30
2018-04-23T16:42:11.380Z,16.00
2018-04-23T16:44:39.418Z,16.30
2018-04-23T16:47:05.764Z,17.10
2018-04-23T16:49:32.587Z,17.90
2018-04-23T16:54:29.059Z,17.00
2018-04-23T16:56:55.961Z,16.10
2018-04-23T16:59:23.411Z,15.50
2018-04-23T17:01:51.046Z,15.30
2018-04-23T17:04:17.423Z,15.20
2018-04-23T17:06:44.326Z,15.00
2018-04-23T17:09:13.512Z,15.10
2018-04-23T17:11:40.931Z,14.70
2018-04-23T17:14:08.996Z,15.00
2018-04-23T17:16:35.580Z,14.90
2018-04-23T17:19:03.869Z,14.80
2018-04-23T17:21:30.435Z,14.70
2018-04-23T17:23:57.157Z,14.70
2018-04-23T17:31:21.251Z,14.70
2018-04-23T17:33:49.302Z,15.00
2018-04-23T17:36:16.521Z,15.10
2018-04-23T17:41:11.035Z,14.60
2018-04-23T17:43:38.474Z,14.40
2018-04-23T17:48:33.659Z,14.20
2018-04-23T17:51:00.078Z,14.20
2018-04-23T17:53:27.311Z,14.00
2018-04-23T17:55:53.780Z,13.80
2018-04-23T17:58:20.230Z,13.70
2018-04-23T18:00:47.325Z,13.60
2018-04-23T18:03:13.731Z,13.60
2018-04-23T18:05:40.997Z,13.60
2018-04-23T18:08:08.804Z,13.40
2018-04-23T18:10:35.149Z,13.30
2018-04-23T18:13:01.939Z,13.10
2018-04-23T18:15:29.532Z,13.10
2018-04-23T18:17:56.051Z,13.00
2018-04-23T18:20:22.410Z,13.00
2018-04-23T18:22:48.971Z,13.00
2018-04-23T18:25:16.446Z,12.90
2018-04-23T18:27:44.119Z,13.00
2018-04-23T18:30:10.499Z,13.00
2018-04-23T18:32:37.298Z,13.30
2018-04-23T18:35:04.180Z,12.80
2018-04-23T18:37:30.558Z,12.70
2018-04-23T18:39:57.082Z,12.70
2018-04-23T18:42:24.401Z,12.50
2018-04-23T18:44:50.765Z,12.20
2018-04-23T18:47:17.558Z,12.40
2018-04-23T18:49:44.076Z,12.40
2018-04-23T18:52:10.638Z,12.40
2018-04-23T18:54:38.189Z,12.40
2018-04-23T18:57:04.676Z,12.40
2018-04-23T18:59:31.187Z,12.30
2018-04-23T19:01:58.742Z,12.30
2018-04-23T19:04:25.568Z,12.30
2018-04-23T19:06:52.617Z,12.10
2018-04-23T19:09:19.027Z,12.00
2018-04-23T19:11:45.479Z,11.90
2018-04-23T19:14:12.512Z,11.90
2018-04-23T19:16:38.888Z,11.80
2018-04-23T19:19:05.878Z,11.70
2018-04-23T19:21:33.416Z,11.60
2018-04-23T19:23:59.816Z,11.50
2018-04-23T19:26:27.287Z,11.30
2018-04-23T19:28:54.359Z,11.30
2018-04-23T19:33:49.677Z,11.10
2018-04-23T19:36:16.297Z,11.00
2018-04-23T19:38:43.262Z,11.00
2018-04-23T19:41:09.823Z,10.60
2018-04-23T19:43:36.231Z,10.80
2018-04-23T19:46:03.210Z,10.60
2018-04-23T19:48:29.553Z,10.80
2018-04-23T19:50:55.941Z,10.80
2018-04-23T19:55:50.967Z,10.70
2018-04-23T19:58:18.156Z,10.70
2018-04-23T20:00:45.307Z,10.80
2018-04-23T20:03:12.492Z,10.70
2018-04-23T20:05:39.269Z,10.60
2018-04-23T20:08:06.607Z,11.00
2018-04-23T20:10:34.580Z,10.50
2018-04-23T20:13:00.970Z,10.30
2018-04-23T20:15:28.550Z,10.30
2018-04-23T20:17:54.915Z,10.20
2018-04-23T20:20:22.025Z,10.30
2018-04-23T20:22:48.459Z,10.30
2018-04-23T20:25:14.848Z,10.30
2018-04-23T20:27:41.751Z,10.20
2018-04-23T20:30:09.894Z,10.30
2018-04-23T20:32:36.371Z,10.40
2018-04-23T20:35:02.876Z,10.50
2018-04-23T20:37:30.046Z,10.40
2018-04-23T20:39:56.520Z,10.40
2018-04-23T20:42:25.159Z,10.30
2018-04-23T20:44:53.139Z,10.30
2018-04-23T20:47:19.819Z,10.20
2018-04-23T20:49:46.971Z,10.10
2018-04-23T20:52:13.304Z,10.00
2018-04-23T20:54:40.517Z,9.90
2018-04-23T20:57:06.909Z,9.80
2018-04-23T20:59:33.421Z,9.60
2018-04-23T21:02:00.204Z,9.60
2018-04-23T21:04:26.663Z,9.80
2018-04-23T21:06:53.046Z,9.50
2018-04-23T21:09:19.419Z,9.40
2018-04-23T21:11:47.145Z,9.50
2018-04-23T21:14:13.564Z,9.40
2018-04-23T21:16:40.029Z,9.30
2018-04-23T21:19:06.686Z,9.30
2018-04-23T21:21:33.418Z,9.10
2018-04-23T21:24:01.317Z,8.80
2018-04-23T21:26:28.511Z,9.20
2018-04-23T21:28:55.435Z,9.10
2018-04-23T21:31:21.815Z,9.10
2018-04-23T21:33:48.725Z,9.30
2018-04-23T21:36:15.146Z,9.10
2018-04-23T21:38:41.639Z,9.10
2018-04-23T21:41:08.016Z,9.10
2018-04-23T21:43:34.898Z,9.10
2018-04-23T21:46:01.235Z,9.10
2018-04-23T21:48:28.335Z,9.20
2018-04-23T21:50:55.528Z,9.10
2018-04-23T21:53:23.047Z,9.20
2018-04-23T21:55:50.682Z,9.20
2018-04-23T21:58:16.979Z,9.30
2018-04-23T22:00:43.448Z,9.20
2018-04-23T22:03:09.859Z,9.10
2018-04-23T22:05:36.291Z,9.10
2018-04-23T22:08:02.705Z,9.10
2018-04-23T22:10:29.109Z,9.10
2018-04-23T22:12:55.475Z,9.00
2018-04-23T22:15:21.935Z,9.20
2018-04-23T22:17:48.543Z,9.10
2018-04-23T22:20:15.019Z,9.10
2018-04-23T22:22:41.440Z,9.00
2018-04-23T22:25:08.538Z,9.10
2018-04-23T22:27:35.777Z,9.10
2018-04-23T22:30:02.419Z,9.00
2018-04-23T22:32:28.786Z,9.00
2018-04-23T22:34:55.283Z,8.90
2018-04-23T22:37:23.265Z,8.90
2018-04-23T22:39:49.687Z,8.90
2018-04-23T22:42:16.032Z,8.90
2018-04-23T22:44:43.144Z,8.90
2018-04-23T22:47:11.033Z,8.90
2018-04-23T22:49:37.384Z,8.90
2018-04-23T22:52:03.771Z,8.80
2018-04-23T22:54:30.255Z,8.70
2018-04-23T22:56:56.666Z,8.80
2018-04-23T22:59:23.872Z,8.70
2018-04-23T23:01:50.301Z,8.60
2018-04-23T23:04:17.809Z,8.60
2018-04-23T23:06:44.343Z,8.60
2018-04-23T23:09:12.087Z,8.60
2018-04-23T23:11:39.152Z,8.60
2018-04-23T23:14:05.546Z,8.60
2018-04-23T23:16:32.421Z,8.60
2018-04-23T23:19:00.618Z,8.60
2018-04-23T23:21:27.550Z,8.60
2018-04-23T23:23:54.000Z,8.60
2018-04-23T23:26:20.407Z,8.60
2018-04-23T23:28:46.804Z,8.40
2018-04-23T23:31:13.431Z,8.50
2018-04-23T23:33:39.769Z,8.40
2018-04-23T23:36:07.642Z,8.30
2018-04-23T23:38:33.965Z,8.50
2018-04-23T23:41:00.347Z,8.30
2018-04-23T23:43:27.671Z,8.50
2018-04-23T23:48:22.491Z,8.40
2018-04-23T23:50:50.683Z,8.30
2018-04-23T23:53:18.072Z,8.30
2018-04-23T23:55:44.536Z,8.30
2018-04-23T23:58:11.816Z,8.30
